sensor_id;sensor_type;location;lat;lon;timestamp;temperature;humidity
67093;SHT31;54011;50.772;7.730;2022-12-22T00:02:20;9.92;95.52
67093;SHT31;54011;50.772;7.730;2022-12-22T00:05:30;9.96;95.48
67093;SHT31;54011;50.772;7.730;2022-12-22T00:08:14;10.01;95.51
67093;SHT31;54011;50.772;7.730;2022-12-22T00:10:59;9.99;95.57
67093;SHT31;54011;50.772;7.730;2022-12-22T00:13:44;10.02;95.71
67093;SHT31;54011;50.772;7.730;2022-12-22T00:16:36;9.99;95.76
67093;SHT31;54011;50.772;7.730;2022-12-22T00:19:21;10.03;95.75
67093;SHT31;54011;50.772;7.730;2022-12-22T00:22:18;10.03;95.75
67093;SHT31;54011;50.772;7.730;2022-12-22T00:25:02;10.10;95.49
67093;SHT31;54011;50.772;7.730;2022-12-22T00:27:46;10.09;95.73
67093;SHT31;54011;50.772;7.730;2022-12-22T00:30:30;10.05;95.73
67093;SHT31;54011;50.772;7.730;2022-12-22T00:33:16;10.08;95.94
67093;SHT31;54011;50.772;7.730;2022-12-22T00:36:02;10.12;95.92
67093;SHT31;54011;50.772;7.730;2022-12-22T00:39:13;10.06;95.97
67093;SHT31;54011;50.772;7.730;2022-12-22T00:41:57;10.08;96.04
67093;SHT31;54011;50.772;7.730;2022-12-22T00:44:41;10.05;96.26
67093;SHT31;54011;50.772;7.730;2022-12-22T00:47:27;10.09;96.32
67093;SHT31;54011;50.772;7.730;2022-12-22T00:50:12;10.10;96.38
67093;SHT31;54011;50.772;7.730;2022-12-22T00:52:58;10.10;96.30
67093;SHT31;54011;50.772;7.730;2022-12-22T00:55:43;10.09;96.16
67093;SHT31;54011;50.772;7.730;2022-12-22T00:58:27;10.16;96.11
67093;SHT31;54011;50.772;7.730;2022-12-22T01:01:12;10.15;96.34
67093;SHT31;54011;50.772;7.730;2022-12-22T01:03:56;10.16;95.88
67093;SHT31;54011;50.772;7.730;2022-12-22T01:06:40;10.23;95.87
67093;SHT31;54011;50.772;7.730;2022-12-22T01:09:25;10.18;95.77
67093;SHT31;54011;50.772;7.730;2022-12-22T01:12:21;10.23;95.72
67093;SHT31;54011;50.772;7.730;2022-12-22T01:15:15;10.23;95.59
67093;SHT31;54011;50.772;7.730;2022-12-22T01:18:00;10.23;95.58
67093;SHT31;54011;50.772;7.730;2022-12-22T01:20:45;10.30;95.24
67093;SHT31;54011;50.772;7.730;2022-12-22T01:23:30;10.26;95.42
67093;SHT31;54011;50.772;7.730;2022-12-22T01:26:14;10.26;95.32
67093;SHT31;54011;50.772;7.730;2022-12-22T01:28:58;10.26;95.36
67093;SHT31;54011;50.772;7.730;2022-12-22T01:31:42;10.23;95.62
67093;SHT31;54011;50.772;7.730;2022-12-22T01:34:26;10.23;95.39
67093;SHT31;54011;50.772;7.730;2022-12-22T01:37:11;10.26;95.77
67093;SHT31;54011;50.772;7.730;2022-12-22T01:39:55;10.23;95.83
67093;SHT31;54011;50.772;7.730;2022-12-22T01:42:39;10.26;95.51
67093;SHT31;54011;50.772;7.730;2022-12-22T01:45:27;10.22;95.83
67093;SHT31;54011;50.772;7.730;2022-12-22T01:48:16;10.18;95.83
67093;SHT31;54011;50.772;7.730;2022-12-22T01:51:04;10.20;95.98
67093;SHT31;54011;50.772;7.730;2022-12-22T01:53:51;10.20;96.05
67093;SHT31;54011;50.772;7.730;2022-12-22T01:56:36;10.23;95.78
67093;SHT31;54011;50.772;7.730;2022-12-22T01:59:20;10.22;95.84
67093;SHT31;54011;50.772;7.730;2022-12-22T02:02:09;10.16;95.97
67093;SHT31;54011;50.772;7.730;2022-12-22T02:04:56;10.23;95.75
67093;SHT31;54011;50.772;7.730;2022-12-22T02:08:06;10.16;95.95
67093;SHT31;54011;50.772;7.730;2022-12-22T02:11:07;10.19;96.00
67093;SHT31;54011;50.772;7.730;2022-12-22T02:17:26;10.18;95.98
67093;SHT31;54011;50.772;7.730;2022-12-22T02:20:26;10.20;95.83
67093;SHT31;54011;50.772;7.730;2022-12-22T02:23:30;10.18;95.80
67093;SHT31;54011;50.772;7.730;2022-12-22T02:26:31;10.15;96.12
67093;SHT31;54011;50.772;7.730;2022-12-22T02:29:21;10.22;95.77
67093;SHT31;54011;50.772;7.730;2022-12-22T02:32:07;10.19;95.93
67093;SHT31;54011;50.772;7.730;2022-12-22T02:34:51;10.15;96.19
67093;SHT31;54011;50.772;7.730;2022-12-22T02:37:52;10.18;96.05
67093;SHT31;54011;50.772;7.730;2022-12-22T02:41:00;10.18;96.13
67093;SHT31;54011;50.772;7.730;2022-12-22T02:44:11;10.15;96.22
67093;SHT31;54011;50.772;7.730;2022-12-22T02:46:59;10.13;96.26
67093;SHT31;54011;50.772;7.730;2022-12-22T02:49:57;10.08;96.62
67093;SHT31;54011;50.772;7.730;2022-12-22T02:52:44;10.12;96.39
67093;SHT31;54011;50.772;7.730;2022-12-22T02:55:31;10.10;96.47
67093;SHT31;54011;50.772;7.730;2022-12-22T02:58:18;10.15;96.21
67093;SHT31;54011;50.772;7.730;2022-12-22T03:01:03;10.13;96.53
67093;SHT31;54011;50.772;7.730;2022-12-22T03:03:49;10.18;96.35
67093;SHT31;54011;50.772;7.730;2022-12-22T03:06:33;10.13;96.49
67093;SHT31;54011;50.772;7.730;2022-12-22T03:09:17;10.15;96.43
67093;SHT31;54011;50.772;7.730;2022-12-22T03:12:01;10.08;96.62
67093;SHT31;54011;50.772;7.730;2022-12-22T03:14:47;10.15;96.42
67093;SHT31;54011;50.772;7.730;2022-12-22T03:17:31;10.13;96.55
67093;SHT31;54011;50.772;7.730;2022-12-22T03:20:16;10.12;96.63
67093;SHT31;54011;50.772;7.730;2022-12-22T03:23:04;10.10;97.00
67093;SHT31;54011;50.772;7.730;2022-12-22T03:25:48;10.16;96.69
67093;SHT31;54011;50.772;7.730;2022-12-22T03:28:25;10.13;96.80
67093;SHT31;54011;50.772;7.730;2022-12-22T03:31:00;10.18;96.66
67093;SHT31;54011;50.772;7.730;2022-12-22T03:33:29;10.16;96.82
67093;SHT31;54011;50.772;7.730;2022-12-22T03:35:54;10.18;96.74
67093;SHT31;54011;50.772;7.730;2022-12-22T03:38:20;10.16;96.88
67093;SHT31;54011;50.772;7.730;2022-12-22T03:40:46;10.15;96.98
67093;SHT31;54011;50.772;7.730;2022-12-22T03:43:14;10.13;97.06
67093;SHT31;54011;50.772;7.730;2022-12-22T03:45:59;10.20;96.76
67093;SHT31;54011;50.772;7.730;2022-12-22T03:48:44;10.20;96.52
67093;SHT31;54011;50.772;7.730;2022-12-22T03:51:31;10.20;96.65
67093;SHT31;54011;50.772;7.730;2022-12-22T03:53:56;10.15;96.75
67093;SHT31;54011;50.772;7.730;2022-12-22T03:56:22;10.19;96.67
67093;SHT31;54011;50.772;7.730;2022-12-22T03:58:47;10.22;96.66
67093;SHT31;54011;50.772;7.730;2022-12-22T04:01:16;10.25;96.52
67093;SHT31;54011;50.772;7.730;2022-12-22T04:03:41;10.22;96.54
67093;SHT31;54011;50.772;7.730;2022-12-22T04:06:07;10.18;96.70
67093;SHT31;54011;50.772;7.730;2022-12-22T04:08:32;10.22;96.49
67093;SHT31;54011;50.772;7.730;2022-12-22T04:10:58;10.22;96.53
67093;SHT31;54011;50.772;7.730;2022-12-22T04:13:44;10.22;96.46
67093;SHT31;54011;50.772;7.730;2022-12-22T04:16:12;10.25;96.46
67093;SHT31;54011;50.772;7.730;2022-12-22T04:18:38;10.15;96.80
67093;SHT31;54011;50.772;7.730;2022-12-22T04:21:04;10.18;96.80
67093;SHT31;54011;50.772;7.730;2022-12-22T04:23:30;10.22;96.50
67093;SHT31;54011;50.772;7.730;2022-12-22T04:25:56;10.16;96.89
67093;SHT31;54011;50.772;7.730;2022-12-22T04:28:22;10.25;96.60
67093;SHT31;54011;50.772;7.730;2022-12-22T04:30:49;10.19;96.81
67093;SHT31;54011;50.772;7.730;2022-12-22T04:33:15;10.26;96.63
67093;SHT31;54011;50.772;7.730;2022-12-22T04:35:42;10.20;96.71
67093;SHT31;54011;50.772;7.730;2022-12-22T04:38:07;10.28;96.74
67093;SHT31;54011;50.772;7.730;2022-12-22T04:40:33;10.32;96.62
67093;SHT31;54011;50.772;7.730;2022-12-22T04:42:58;10.36;96.40
67093;SHT31;54011;50.772;7.730;2022-12-22T04:45:24;10.36;96.39
67093;SHT31;54011;50.772;7.730;2022-12-22T04:47:50;10.40;96.52
67093;SHT31;54011;50.772;7.730;2022-12-22T04:50:17;10.46;96.40
67093;SHT31;54011;50.772;7.730;2022-12-22T04:52:42;10.45;96.34
67093;SHT31;54011;50.772;7.730;2022-12-22T04:55:08;10.47;96.27
67093;SHT31;54011;50.772;7.730;2022-12-22T04:57:34;10.53;95.97
67093;SHT31;54011;50.772;7.730;2022-12-22T04:59:59;10.49;96.33
67093;SHT31;54011;50.772;7.730;2022-12-22T05:02:25;10.55;96.12
67093;SHT31;54011;50.772;7.730;2022-12-22T05:04:51;10.55;96.20
67093;SHT31;54011;50.772;7.730;2022-12-22T05:07:17;10.57;96.08
67093;SHT31;54011;50.772;7.730;2022-12-22T05:09:42;10.63;95.88
67093;SHT31;54011;50.772;7.730;2022-12-22T05:12:08;10.66;95.89
67093;SHT31;54011;50.772;7.730;2022-12-22T05:14:52;10.61;96.26
67093;SHT31;54011;50.772;7.730;2022-12-22T05:17:25;10.57;96.47
67093;SHT31;54011;50.772;7.730;2022-12-22T05:19:51;10.56;96.60
67093;SHT31;54011;50.772;7.730;2022-12-22T05:22:27;10.56;96.59
67093;SHT31;54011;50.772;7.730;2022-12-22T05:24:53;10.60;96.52
67093;SHT31;54011;50.772;7.730;2022-12-22T05:27:19;10.64;96.35
67093;SHT31;54011;50.772;7.730;2022-12-22T05:29:45;10.71;96.11
67093;SHT31;54011;50.772;7.730;2022-12-22T05:32:11;10.67;96.19
67093;SHT31;54011;50.772;7.730;2022-12-22T05:34:39;10.73;95.83
67093;SHT31;54011;50.772;7.730;2022-12-22T05:37:07;10.73;95.74
67093;SHT31;54011;50.772;7.730;2022-12-22T05:39:34;10.70;96.07
67093;SHT31;54011;50.772;7.730;2022-12-22T05:41:59;10.66;96.20
67093;SHT31;54011;50.772;7.730;2022-12-22T05:44:25;10.68;96.18
67093;SHT31;54011;50.772;7.730;2022-12-22T05:46:51;10.70;96.02
67093;SHT31;54011;50.772;7.730;2022-12-22T05:49:18;10.71;96.03
67093;SHT31;54011;50.772;7.730;2022-12-22T05:51:45;10.68;96.09
67093;SHT31;54011;50.772;7.730;2022-12-22T05:54:11;10.77;96.22
67093;SHT31;54011;50.772;7.730;2022-12-22T05:56:36;10.73;96.07
67093;SHT31;54011;50.772;7.730;2022-12-22T05:59:02;10.71;96.31
67093;SHT31;54011;50.772;7.730;2022-12-22T06:01:28;10.70;96.19
67093;SHT31;54011;50.772;7.730;2022-12-22T06:03:57;10.71;96.16
67093;SHT31;54011;50.772;7.730;2022-12-22T06:06:22;10.71;96.23
67093;SHT31;54011;50.772;7.730;2022-12-22T06:08:47;10.66;96.23
67093;SHT31;54011;50.772;7.730;2022-12-22T06:11:13;10.67;96.16
67093;SHT31;54011;50.772;7.730;2022-12-22T06:13:43;10.68;96.14
67093;SHT31;54011;50.772;7.730;2022-12-22T06:16:09;10.67;96.08
67093;SHT31;54011;50.772;7.730;2022-12-22T06:18:34;10.68;96.21
67093;SHT31;54011;50.772;7.730;2022-12-22T06:21:02;10.73;95.95
67093;SHT31;54011;50.772;7.730;2022-12-22T06:23:27;10.67;96.61
67093;SHT31;54011;50.772;7.730;2022-12-22T06:26:01;10.64;96.71
67093;SHT31;54011;50.772;7.730;2022-12-22T06:28:28;10.60;97.11
67093;SHT31;54011;50.772;7.730;2022-12-22T06:30:54;10.60;97.07
67093;SHT31;54011;50.772;7.730;2022-12-22T06:33:20;10.63;96.89
67093;SHT31;54011;50.772;7.730;2022-12-22T06:35:46;10.63;97.00
67093;SHT31;54011;50.772;7.730;2022-12-22T06:38:12;10.66;97.13
67093;SHT31;54011;50.772;7.730;2022-12-22T06:40:38;10.66;97.09
67093;SHT31;54011;50.772;7.730;2022-12-22T06:43:05;10.66;97.00
67093;SHT31;54011;50.772;7.730;2022-12-22T06:45:36;10.67;96.94
67093;SHT31;54011;50.772;7.730;2022-12-22T06:48:02;10.73;96.07
67093;SHT31;54011;50.772;7.730;2022-12-22T06:50:28;10.66;96.96
67093;SHT31;54011;50.772;7.730;2022-12-22T06:52:54;10.68;96.11
67093;SHT31;54011;50.772;7.730;2022-12-22T06:55:19;10.67;96.54
67093;SHT31;54011;50.772;7.730;2022-12-22T06:57:45;10.71;96.37
67093;SHT31;54011;50.772;7.730;2022-12-22T07:00:10;10.71;96.45
67093;SHT31;54011;50.772;7.730;2022-12-22T07:02:36;10.71;96.14
67093;SHT31;54011;50.772;7.730;2022-12-22T07:05:02;10.64;96.04
67093;SHT31;54011;50.772;7.730;2022-12-22T07:07:27;10.66;95.53
67093;SHT31;54011;50.772;7.730;2022-12-22T07:09:53;10.70;95.80
67093;SHT31;54011;50.772;7.730;2022-12-22T07:12:21;10.63;95.78
67093;SHT31;54011;50.772;7.730;2022-12-22T07:14:46;10.60;95.68
67093;SHT31;54011;50.772;7.730;2022-12-22T07:17:12;10.53;95.55
67093;SHT31;54011;50.772;7.730;2022-12-22T07:19:37;10.49;95.32
67093;SHT31;54011;50.772;7.730;2022-12-22T07:22:04;10.46;94.70
67093;SHT31;54011;50.772;7.730;2022-12-22T07:24:29;10.45;94.38
67093;SHT31;54011;50.772;7.730;2022-12-22T07:26:55;10.47;93.83
67093;SHT31;54011;50.772;7.730;2022-12-22T07:29:22;10.40;94.05
67093;SHT31;54011;50.772;7.730;2022-12-22T07:31:47;10.46;93.75
67093;SHT31;54011;50.772;7.730;2022-12-22T07:34:13;10.42;94.89
67093;SHT31;54011;50.772;7.730;2022-12-22T07:36:38;10.40;94.12
67093;SHT31;54011;50.772;7.730;2022-12-22T07:39:05;10.37;94.36
67093;SHT31;54011;50.772;7.730;2022-12-22T07:41:31;10.36;94.54
67093;SHT31;54011;50.772;7.730;2022-12-22T07:44:15;10.28;95.01
67093;SHT31;54011;50.772;7.730;2022-12-22T07:46:41;10.23;95.32
67093;SHT31;54011;50.772;7.730;2022-12-22T07:49:06;10.20;95.40
67093;SHT31;54011;50.772;7.730;2022-12-22T07:51:51;10.19;95.50
67093;SHT31;54011;50.772;7.730;2022-12-22T07:54:17;10.08;96.09
67093;SHT31;54011;50.772;7.730;2022-12-22T07:56:45;10.05;96.26
67093;SHT31;54011;50.772;7.730;2022-12-22T07:59:12;10.09;96.46
67093;SHT31;54011;50.772;7.730;2022-12-22T08:01:38;10.12;96.39
67093;SHT31;54011;50.772;7.730;2022-12-22T08:04:04;10.06;96.62
67093;SHT31;54011;50.772;7.730;2022-12-22T08:06:31;10.10;96.40
67093;SHT31;54011;50.772;7.730;2022-12-22T08:08:56;10.05;96.59
67093;SHT31;54011;50.772;7.730;2022-12-22T08:11:22;10.05;96.81
67093;SHT31;54011;50.772;7.730;2022-12-22T08:13:47;10.02;96.80
67093;SHT31;54011;50.772;7.730;2022-12-22T08:16:14;10.09;96.72
67093;SHT31;54011;50.772;7.730;2022-12-22T08:18:40;10.10;96.68
67093;SHT31;54011;50.772;7.730;2022-12-22T08:21:06;10.06;97.24
67093;SHT31;54011;50.772;7.730;2022-12-22T08:23:32;10.09;97.11
67093;SHT31;54011;50.772;7.730;2022-12-22T08:26:10;10.06;97.04
67093;SHT31;54011;50.772;7.730;2022-12-22T08:28:42;10.10;97.21
67093;SHT31;54011;50.772;7.730;2022-12-22T08:31:08;10.09;97.23
67093;SHT31;54011;50.772;7.730;2022-12-22T08:33:34;10.02;99.99
67093;SHT31;54011;50.772;7.730;2022-12-22T08:35:59;10.16;99.99
67093;SHT31;54011;50.772;7.730;2022-12-22T08:38:25;10.16;99.99
67093;SHT31;54011;50.772;7.730;2022-12-22T08:40:51;10.22;99.99
67093;SHT31;54011;50.772;7.730;2022-12-22T08:43:17;10.20;97.33
67093;SHT31;54011;50.772;7.730;2022-12-22T08:45:44;10.13;97.36
67093;SHT31;54011;50.772;7.730;2022-12-22T08:48:09;10.22;97.17
67093;SHT31;54011;50.772;7.730;2022-12-22T08:50:35;10.13;97.49
67093;SHT31;54011;50.772;7.730;2022-12-22T08:53:05;10.19;97.29
67093;SHT31;54011;50.772;7.730;2022-12-22T08:55:30;10.19;97.38
67093;SHT31;54011;50.772;7.730;2022-12-22T08:57:55;10.23;97.35
67093;SHT31;54011;50.772;7.730;2022-12-22T09:00:23;10.29;97.35
67093;SHT31;54011;50.772;7.730;2022-12-22T09:02:48;10.29;97.11
67093;SHT31;54011;50.772;7.730;2022-12-22T09:05:14;10.29;97.27
67093;SHT31;54011;50.772;7.730;2022-12-22T09:07:39;10.32;97.23
67093;SHT31;54011;50.772;7.730;2022-12-22T09:10:07;10.22;97.49
67093;SHT31;54011;50.772;7.730;2022-12-22T09:12:33;10.25;97.58
67093;SHT31;54011;50.772;7.730;2022-12-22T09:14:59;10.25;97.44
67093;SHT31;54011;50.772;7.730;2022-12-22T09:17:24;10.29;97.64
67093;SHT31;54011;50.772;7.730;2022-12-22T09:19:50;10.36;97.42
67093;SHT31;54011;50.772;7.730;2022-12-22T09:22:16;10.37;97.40
67093;SHT31;54011;50.772;7.730;2022-12-22T09:24:41;10.37;97.25
67093;SHT31;54011;50.772;7.730;2022-12-22T09:27:06;10.36;97.28
67093;SHT31;54011;50.772;7.730;2022-12-22T09:29:35;10.40;97.29
67093;SHT31;54011;50.772;7.730;2022-12-22T09:32:02;10.47;96.78
67093;SHT31;54011;50.772;7.730;2022-12-22T09:34:28;10.43;97.08
67093;SHT31;54011;50.772;7.730;2022-12-22T09:36:54;10.59;96.57
67093;SHT31;54011;50.772;7.730;2022-12-22T09:39:19;10.57;96.45
67093;SHT31;54011;50.772;7.730;2022-12-22T09:41:55;10.59;96.66
67093;SHT31;54011;50.772;7.730;2022-12-22T09:46:58;10.50;96.75
67093;SHT31;54011;50.772;7.730;2022-12-22T09:49:25;10.40;96.82
67093;SHT31;54011;50.772;7.730;2022-12-22T09:51:56;10.49;96.55
67093;SHT31;54011;50.772;7.730;2022-12-22T09:54:23;10.43;96.55
67093;SHT31;54011;50.772;7.730;2022-12-22T09:56:49;10.47;96.01
67093;SHT31;54011;50.772;7.730;2022-12-22T09:59:17;10.56;96.04
67093;SHT31;54011;50.772;7.730;2022-12-22T10:02:09;10.50;96.34
67093;SHT31;54011;50.772;7.730;2022-12-22T10:04:55;10.37;96.33
67093;SHT31;54011;50.772;7.730;2022-12-22T10:07:37;10.33;96.56
67093;SHT31;54011;50.772;7.730;2022-12-22T10:10:20;10.39;96.22
67093;SHT31;54011;50.772;7.730;2022-12-22T10:12:49;10.36;96.30
67093;SHT31;54011;50.772;7.730;2022-12-22T10:15:15;10.35;96.42
67093;SHT31;54011;50.772;7.730;2022-12-22T10:17:41;10.36;96.04
67093;SHT31;54011;50.772;7.730;2022-12-22T10:20:25;10.35;96.05
67093;SHT31;54011;50.772;7.730;2022-12-22T10:22:58;10.22;96.69
67093;SHT31;54011;50.772;7.730;2022-12-22T10:28:02;10.16;96.60
67093;SHT31;54011;50.772;7.730;2022-12-22T10:30:32;10.10;97.03
67093;SHT31;54011;50.772;7.730;2022-12-22T10:33:13;9.98;97.29
67093;SHT31;54011;50.772;7.730;2022-12-22T10:35:51;10.05;97.20
67093;SHT31;54011;50.772;7.730;2022-12-22T10:40:51;10.19;96.77
67093;SHT31;54011;50.772;7.730;2022-12-22T10:43:23;10.16;96.89
67093;SHT31;54011;50.772;7.730;2022-12-22T10:45:52;10.16;96.93
67093;SHT31;54011;50.772;7.730;2022-12-22T10:48:30;10.26;96.75
67093;SHT31;54011;50.772;7.730;2022-12-22T10:50:58;10.19;96.54
67093;SHT31;54011;50.772;7.730;2022-12-22T10:53:50;10.12;96.47
67093;SHT31;54011;50.772;7.730;2022-12-22T10:58:52;10.23;95.94
67093;SHT31;54011;50.772;7.730;2022-12-22T11:01:26;10.35;95.54
67093;SHT31;54011;50.772;7.730;2022-12-22T11:03:52;10.39;96.11
67093;SHT31;54011;50.772;7.730;2022-12-22T11:06:23;10.30;95.77
67093;SHT31;54011;50.772;7.730;2022-12-22T11:09:08;10.39;96.22
67093;SHT31;54011;50.772;7.730;2022-12-22T11:11:44;10.18;95.63
67093;SHT31;54011;50.772;7.730;2022-12-22T11:15:00;10.23;96.10
67093;SHT31;54011;50.772;7.730;2022-12-22T11:17:54;10.18;96.07
67093;SHT31;54011;50.772;7.730;2022-12-22T11:32:15;10.20;95.67
67093;SHT31;54011;50.772;7.730;2022-12-22T11:37:53;10.12;95.96
67093;SHT31;54011;50.772;7.730;2022-12-22T11:40:45;10.08;96.09
67093;SHT31;54011;50.772;7.730;2022-12-22T11:43:26;10.23;95.99
67093;SHT31;54011;50.772;7.730;2022-12-22T11:58:32;10.25;94.12
67093;SHT31;54011;50.772;7.730;2022-12-22T12:04:26;10.37;93.84
67093;SHT31;54011;50.772;7.730;2022-12-22T12:10:01;10.49;93.92
67093;SHT31;54011;50.772;7.730;2022-12-22T12:12:48;10.40;93.72
67093;SHT31;54011;50.772;7.730;2022-12-22T12:15:39;10.74;93.22
67093;SHT31;54011;50.772;7.730;2022-12-22T12:18:36;10.93;92.27
67093;SHT31;54011;50.772;7.730;2022-12-22T12:24:18;10.81;91.92
67093;SHT31;54011;50.772;7.730;2022-12-22T12:26:55;10.60;92.89
67093;SHT31;54011;50.772;7.730;2022-12-22T12:29:26;10.32;92.54
67093;SHT31;54011;50.772;7.730;2022-12-22T12:32:14;10.28;93.97
67093;SHT31;54011;50.772;7.730;2022-12-22T12:34:51;10.26;93.61
67093;SHT31;54011;50.772;7.730;2022-12-22T12:37:39;10.20;93.17
67093;SHT31;54011;50.772;7.730;2022-12-22T12:42:56;10.05;92.64
67093;SHT31;54011;50.772;7.730;2022-12-22T12:45:46;9.92;93.73
67093;SHT31;54011;50.772;7.730;2022-12-22T12:50:51;9.78;93.28
67093;SHT31;54011;50.772;7.730;2022-12-22T12:53:18;9.79;93.44
67093;SHT31;54011;50.772;7.730;2022-12-22T13:00:59;9.62;93.25
67093;SHT31;54011;50.772;7.730;2022-12-22T13:05:56;9.65;93.19
67093;SHT31;54011;50.772;7.730;2022-12-22T13:23:41;9.73;92.39
67093;SHT31;54011;50.772;7.730;2022-12-22T13:26:19;9.78;92.45
67093;SHT31;54011;50.772;7.730;2022-12-22T13:31:43;9.75;93.05
67093;SHT31;54011;50.772;7.730;2022-12-22T13:36:48;9.87;93.04
67093;SHT31;54011;50.772;7.730;2022-12-22T13:39:14;9.84;92.38
67093;SHT31;54011;50.772;7.730;2022-12-22T13:41:43;9.82;92.75
67093;SHT31;54011;50.772;7.730;2022-12-22T13:44:30;9.88;93.19
67093;SHT31;54011;50.772;7.730;2022-12-22T13:47:06;9.87;92.42
67093;SHT31;54011;50.772;7.730;2022-12-22T13:49:35;9.94;91.93
67093;SHT31;54011;50.772;7.730;2022-12-22T13:52:01;9.78;92.24
67093;SHT31;54011;50.772;7.730;2022-12-22T13:54:37;9.85;92.25
67093;SHT31;54011;50.772;7.730;2022-12-22T13:57:13;9.98;91.74
67093;SHT31;54011;50.772;7.730;2022-12-22T13:59:41;9.89;91.62
67093;SHT31;54011;50.772;7.730;2022-12-22T14:04:38;9.73;90.72
67093;SHT31;54011;50.772;7.730;2022-12-22T14:09:54;9.81;91.46
67093;SHT31;54011;50.772;7.730;2022-12-22T14:12:22;9.85;91.30
67093;SHT31;54011;50.772;7.730;2022-12-22T14:14:50;9.79;91.55
67093;SHT31;54011;50.772;7.730;2022-12-22T14:17:24;9.75;91.58
67093;SHT31;54011;50.772;7.730;2022-12-22T14:19:52;9.82;91.42
67093;SHT31;54011;50.772;7.730;2022-12-22T14:22:32;9.70;91.85
67093;SHT31;54011;50.772;7.730;2022-12-22T14:25:22;9.64;91.20
67093;SHT31;54011;50.772;7.730;2022-12-22T14:27:52;9.71;91.95
67093;SHT31;54011;50.772;7.730;2022-12-22T14:30:22;9.61;91.79
67093;SHT31;54011;50.772;7.730;2022-12-22T14:32:53;9.59;91.95
67093;SHT31;54011;50.772;7.730;2022-12-22T14:37:48;9.62;91.85
67093;SHT31;54011;50.772;7.730;2022-12-22T14:40:37;9.61;91.80
67093;SHT31;54011;50.772;7.730;2022-12-22T14:43:12;9.65;91.84
67093;SHT31;54011;50.772;7.730;2022-12-22T14:45:45;9.48;91.79
67093;SHT31;54011;50.772;7.730;2022-12-22T14:48:24;9.41;92.20
67093;SHT31;54011;50.772;7.730;2022-12-22T14:50:52;9.38;92.59
67093;SHT31;54011;50.772;7.730;2022-12-22T14:53:42;9.43;92.46
67093;SHT31;54011;50.772;7.730;2022-12-22T14:56:12;9.46;93.40
67093;SHT31;54011;50.772;7.730;2022-12-22T14:58:40;9.40;93.13
67093;SHT31;54011;50.772;7.730;2022-12-22T15:01:23;9.43;93.07
67093;SHT31;54011;50.772;7.730;2022-12-22T15:04:16;9.41;92.74
67093;SHT31;54011;50.772;7.730;2022-12-22T15:06:46;9.37;92.52
67093;SHT31;54011;50.772;7.730;2022-12-22T15:12:15;9.24;93.05
67093;SHT31;54011;50.772;7.730;2022-12-22T15:14:35;9.07;92.93
67093;SHT31;54011;50.772;7.730;2022-12-22T15:17:04;9.07;93.02
67093;SHT31;54011;50.772;7.730;2022-12-22T15:19:33;9.05;93.07
67093;SHT31;54011;50.772;7.730;2022-12-22T15:21:59;8.92;93.49
67093;SHT31;54011;50.772;7.730;2022-12-22T15:24:31;8.93;93.96
67093;SHT31;54011;50.772;7.730;2022-12-22T15:26:57;8.96;93.51
67093;SHT31;54011;50.772;7.730;2022-12-22T15:29:22;9.02;93.83
67093;SHT31;54011;50.772;7.730;2022-12-22T15:31:48;8.96;93.77
67093;SHT31;54011;50.772;7.730;2022-12-22T15:34:29;8.93;93.98
67093;SHT31;54011;50.772;7.730;2022-12-22T15:36:55;8.86;94.09
67093;SHT31;54011;50.772;7.730;2022-12-22T15:39:21;8.82;94.16
67093;SHT31;54011;50.772;7.730;2022-12-22T15:41:47;8.72;94.35
67093;SHT31;54011;50.772;7.730;2022-12-22T15:44:13;8.72;94.33
67093;SHT31;54011;50.772;7.730;2022-12-22T15:46:41;8.73;94.20
67093;SHT31;54011;50.772;7.730;2022-12-22T15:49:21;8.78;94.42
67093;SHT31;54011;50.772;7.730;2022-12-22T15:51:50;8.76;94.32
67093;SHT31;54011;50.772;7.730;2022-12-22T15:54:18;8.79;94.17
67093;SHT31;54011;50.772;7.730;2022-12-22T15:56:44;8.86;94.19
67093;SHT31;54011;50.772;7.730;2022-12-22T15:59:13;8.95;93.72
67093;SHT31;54011;50.772;7.730;2022-12-22T16:01:40;8.97;94.24
67093;SHT31;54011;50.772;7.730;2022-12-22T16:04:11;8.96;94.07
67093;SHT31;54011;50.772;7.730;2022-12-22T16:06:36;9.06;93.83
67093;SHT31;54011;50.772;7.730;2022-12-22T16:09:06;9.16;93.36
67093;SHT31;54011;50.772;7.730;2022-12-22T16:11:32;9.19;93.02
67093;SHT31;54011;50.772;7.730;2022-12-22T16:14:00;9.12;93.58
67093;SHT31;54011;50.772;7.730;2022-12-22T16:16:27;9.05;93.85
67093;SHT31;54011;50.772;7.730;2022-12-22T16:18:53;8.97;94.46
67093;SHT31;54011;50.772;7.730;2022-12-22T16:21:20;9.03;94.49
67093;SHT31;54011;50.772;7.730;2022-12-22T16:23:49;8.99;94.59
67093;SHT31;54011;50.772;7.730;2022-12-22T16:26:17;8.96;94.50
67093;SHT31;54011;50.772;7.730;2022-12-22T16:28:44;8.92;94.91
67093;SHT31;54011;50.772;7.730;2022-12-22T16:31:18;8.96;94.66
67093;SHT31;54011;50.772;7.730;2022-12-22T16:33:44;9.00;94.91
67093;SHT31;54011;50.772;7.730;2022-12-22T16:36:10;8.97;95.20
67093;SHT31;54011;50.772;7.730;2022-12-22T16:38:35;8.96;95.36
67093;SHT31;54011;50.772;7.730;2022-12-22T16:41:02;8.93;95.32
67093;SHT31;54011;50.772;7.730;2022-12-22T16:43:32;8.95;95.40
67093;SHT31;54011;50.772;7.730;2022-12-22T16:46:12;8.90;95.69
67093;SHT31;54011;50.772;7.730;2022-12-22T16:48:40;8.93;95.75
67093;SHT31;54011;50.772;7.730;2022-12-22T16:51:28;8.96;95.59
67093;SHT31;54011;50.772;7.730;2022-12-22T16:54:08;8.99;95.79
67093;SHT31;54011;50.772;7.730;2022-12-22T16:56:34;8.99;96.09
67093;SHT31;54011;50.772;7.730;2022-12-22T16:59:05;9.02;95.94
67093;SHT31;54011;50.772;7.730;2022-12-22T17:01:41;9.06;95.87
67093;SHT31;54011;50.772;7.730;2022-12-22T17:04:23;9.06;96.07
67093;SHT31;54011;50.772;7.730;2022-12-22T17:06:53;9.03;96.17
67093;SHT31;54011;50.772;7.730;2022-12-22T17:09:37;9.03;96.05
67093;SHT31;54011;50.772;7.730;2022-12-22T17:12:09;9.02;95.95
67093;SHT31;54011;50.772;7.730;2022-12-22T17:14:38;9.00;95.65
67093;SHT31;54011;50.772;7.730;2022-12-22T17:17:23;9.05;95.66
67093;SHT31;54011;50.772;7.730;2022-12-22T17:19:54;9.02;95.34
67093;SHT31;54011;50.772;7.730;2022-12-22T17:22:26;9.09;95.21
67093;SHT31;54011;50.772;7.730;2022-12-22T17:24:55;9.10;95.05
67093;SHT31;54011;50.772;7.730;2022-12-22T17:27:28;8.99;95.27
67093;SHT31;54011;50.772;7.730;2022-12-22T17:29:55;9.03;95.32
67093;SHT31;54011;50.772;7.730;2022-12-22T17:32:27;9.06;94.98
67093;SHT31;54011;50.772;7.730;2022-12-22T17:35:15;9.05;94.98
67093;SHT31;54011;50.772;7.730;2022-12-22T17:37:45;9.10;94.67
67093;SHT31;54011;50.772;7.730;2022-12-22T17:40:24;9.10;94.72
67093;SHT31;54011;50.772;7.730;2022-12-22T17:42:58;9.09;95.01
67093;SHT31;54011;50.772;7.730;2022-12-22T17:45:28;9.09;94.71
67093;SHT31;54011;50.772;7.730;2022-12-22T17:50:45;9.12;94.74
67093;SHT31;54011;50.772;7.730;2022-12-22T17:53:20;9.06;95.08
67093;SHT31;54011;50.772;7.730;2022-12-22T17:55:46;9.03;95.17